sensor_id;sensor_type;location;lat;lon;timestamp;P1;durP1;ratioP1;P2;durP2;ratioP2
24279;SDS011;12395;42.808;23.408;2022-07-29T00:01:51;13.90;;;7.93;;
24279;SDS011;12395;42.808;23.408;2022-07-29T00:04:17;13.10;;;7.45;;
24279;SDS011;12395;42.808;23.408;2022-07-29T00:06:43;11.63;;;7.40;;
24279;SDS011;12395;42.808;23.408;2022-07-29T00:09:08;12.07;;;7.85;;
24279;SDS011;12395;42.808;23.408;2022-07-29T00:11:34;13.23;;;7.90;;
24279;SDS011;12395;42.808;23.408;2022-07-29T00:13:59;12.40;;;8.02;;
24279;SDS011;12395;42.808;23.408;2022-07-29T00:16:25;11.45;;;7.95;;
24279;SDS011;12395;42.808;23.408;2022-07-29T00:18:50;13.63;;;8.27;;
24279;SDS011;12395;42.808;23.408;2022-07-29T00:21:15;12.18;;;8.23;;
24279;SDS011;12395;42.808;23.408;2022-07-29T00:23:41;11.50;;;7.93;;
24279;SDS011;12395;42.808;23.408;2022-07-29T00:26:06;12.27;;;7.90;;
24279;SDS011;12395;42.808;23.408;2022-07-29T00:28:32;13.07;;;8.38;;
24279;SDS011;12395;42.808;23.408;2022-07-29T00:30:57;11.15;;;7.75;;
24279;SDS011;12395;42.808;23.408;2022-07-29T00:33:23;12.55;;;8.05;;
24279;SDS011;12395;42.808;23.408;2022-07-29T00:35:48;11.88;;;8.05;;
24279;SDS011;12395;42.808;23.408;2022-07-29T00:38:15;13.02;;;8.02;;
24279;SDS011;12395;42.808;23.408;2022-07-29T00:40:42;12.00;;;8.05;;
24279;SDS011;12395;42.808;23.408;2022-07-29T00:43:08;12.23;;;8.10;;
24279;SDS011;12395;42.808;23.408;2022-07-29T00:45:34;11.52;;;7.95;;
24279;SDS011;12395;42.808;23.408;2022-07-29T00:47:59;12.57;;;8.07;;
24279;SDS011;12395;42.808;23.408;2022-07-29T00:50:25;12.23;;;8.15;;
24279;SDS011;12395;42.808;23.408;2022-07-29T00:52:51;12.18;;;7.97;;
24279;SDS011;12395;42.808;23.408;2022-07-29T00:55:18;13.50;;;8.20;;
24279;SDS011;12395;42.808;23.408;2022-07-29T00:57:44;11.52;;;7.97;;
24279;SDS011;12395;42.808;23.408;2022-07-29T01:00:11;13.68;;;8.40;;
24279;SDS011;12395;42.808;23.408;2022-07-29T01:02:38;12.93;;;8.45;;
24279;SDS011;12395;42.808;23.408;2022-07-29T01:05:04;13.00;;;8.43;;
24279;SDS011;12395;42.808;23.408;2022-07-29T01:07:31;13.60;;;8.80;;
24279;SDS011;12395;42.808;23.408;2022-07-29T01:09:58;14.52;;;9.40;;
24279;SDS011;12395;42.808;23.408;2022-07-29T01:12:25;15.43;;;9.55;;
24279;SDS011;12395;42.808;23.408;2022-07-29T01:14:52;14.52;;;9.10;;
24279;SDS011;12395;42.808;23.408;2022-07-29T01:17:24;13.35;;;9.13;;
24279;SDS011;12395;42.808;23.408;2022-07-29T01:20:07;12.23;;;8.32;;
24279;SDS011;12395;42.808;23.408;2022-07-29T01:31:13;13.02;;;8.43;;
24279;SDS011;12395;42.808;23.408;2022-07-29T01:33:45;13.45;;;9.25;;
24279;SDS011;12395;42.808;23.408;2022-07-29T01:36:20;14.15;;;10.02;;
24279;SDS011;12395;42.808;23.408;2022-07-29T01:42:20;14.10;;;9.27;;
24279;SDS011;12395;42.808;23.408;2022-07-29T01:44:54;13.32;;;9.35;;
24279;SDS011;12395;42.808;23.408;2022-07-29T01:49:52;14.07;;;9.65;;
24279;SDS011;12395;42.808;23.408;2022-07-29T01:52:31;15.63;;;10.07;;
24279;SDS011;12395;42.808;23.408;2022-07-29T01:55:07;15.95;;;9.88;;
24279;SDS011;12395;42.808;23.408;2022-07-29T01:57:38;13.20;;;9.07;;
24279;SDS011;12395;42.808;23.408;2022-07-29T02:00:07;14.93;;;10.10;;
24279;SDS011;12395;42.808;23.408;2022-07-29T02:02:33;13.77;;;9.55;;
24279;SDS011;12395;42.808;23.408;2022-07-29T02:05:02;13.77;;;9.63;;
24279;SDS011;12395;42.808;23.408;2022-07-29T02:07:33;13.30;;;9.57;;
24279;SDS011;12395;42.808;23.408;2022-07-29T02:10:00;15.60;;;10.00;;
24279;SDS011;12395;42.808;23.408;2022-07-29T02:12:28;15.77;;;10.02;;
24279;SDS011;12395;42.808;23.408;2022-07-29T02:14:56;13.93;;;9.35;;
24279;SDS011;12395;42.808;23.408;2022-07-29T02:17:27;14.05;;;9.38;;
24279;SDS011;12395;42.808;23.408;2022-07-29T02:19:59;11.75;;;8.38;;
24279;SDS011;12395;42.808;23.408;2022-07-29T02:22:26;13.15;;;8.73;;
24279;SDS011;12395;42.808;23.408;2022-07-29T02:24:55;14.27;;;9.27;;
24279;SDS011;12395;42.808;23.408;2022-07-29T02:27:23;13.32;;;8.10;;
24279;SDS011;12395;42.808;23.408;2022-07-29T02:29:52;12.48;;;8.77;;
24279;SDS011;12395;42.808;23.408;2022-07-29T02:32:19;13.60;;;8.43;;
24279;SDS011;12395;42.808;23.408;2022-07-29T02:34:47;14.73;;;8.73;;
24279;SDS011;12395;42.808;23.408;2022-07-29T02:37:14;12.67;;;8.70;;
24279;SDS011;12395;42.808;23.408;2022-07-29T02:39:42;12.63;;;8.63;;
24279;SDS011;12395;42.808;23.408;2022-07-29T02:42:10;11.45;;;7.70;;
24279;SDS011;12395;42.808;23.408;2022-07-29T02:44:38;11.80;;;8.32;;
24279;SDS011;12395;42.808;23.408;2022-07-29T02:47:10;12.38;;;8.48;;
24279;SDS011;12395;42.808;23.408;2022-07-29T02:49:46;13.98;;;9.15;;
24279;SDS011;12395;42.808;23.408;2022-07-29T02:52:30;14.68;;;9.65;;
24279;SDS011;12395;42.808;23.408;2022-07-29T02:55:23;15.70;;;9.27;;
24279;SDS011;12395;42.808;23.408;2022-07-29T02:57:59;12.50;;;8.90;;
24279;SDS011;12395;42.808;23.408;2022-07-29T03:00:28;13.43;;;8.45;;
24279;SDS011;12395;42.808;23.408;2022-07-29T03:02:56;12.35;;;8.23;;
24279;SDS011;12395;42.808;23.408;2022-07-29T03:05:24;12.07;;;7.90;;
24279;SDS011;12395;42.808;23.408;2022-07-29T03:07:52;12.32;;;7.85;;
24279;SDS011;12395;42.808;23.408;2022-07-29T03:10:25;12.15;;;7.88;;
24279;SDS011;12395;42.808;23.408;2022-07-29T03:12:51;13.80;;;7.72;;
24279;SDS011;12395;42.808;23.408;2022-07-29T03:15:17;11.05;;;7.38;;
24279;SDS011;12395;42.808;23.408;2022-07-29T03:17:43;11.35;;;6.70;;
24279;SDS011;12395;42.808;23.408;2022-07-29T03:20:09;12.55;;;6.70;;
24279;SDS011;12395;42.808;23.408;2022-07-29T03:22:40;9.32;;;6.28;;
24279;SDS011;12395;42.808;23.408;2022-07-29T03:25:14;10.38;;;6.70;;
24279;SDS011;12395;42.808;23.408;2022-07-29T03:27:40;9.32;;;5.43;;
24279;SDS011;12395;42.808;23.408;2022-07-29T03:30:06;10.20;;;6.00;;
24279;SDS011;12395;42.808;23.408;2022-07-29T03:32:33;8.93;;;5.53;;
24279;SDS011;12395;42.808;23.408;2022-07-29T03:34:59;9.15;;;5.72;;
24279;SDS011;12395;42.808;23.408;2022-07-29T03:37:25;9.00;;;5.75;;
24279;SDS011;12395;42.808;23.408;2022-07-29T03:39:52;10.93;;;5.82;;
24279;SDS011;12395;42.808;23.408;2022-07-29T03:42:21;7.50;;;5.38;;
24279;SDS011;12395;42.808;23.408;2022-07-29T03:44:50;9.77;;;5.40;;
24279;SDS011;12395;42.808;23.408;2022-07-29T03:47:18;8.13;;;5.38;;
24279;SDS011;12395;42.808;23.408;2022-07-29T03:49:48;9.23;;;5.90;;
24279;SDS011;12395;42.808;23.408;2022-07-29T03:52:16;8.98;;;5.40;;
24279;SDS011;12395;42.808;23.408;2022-07-29T03:54:42;9.18;;;5.90;;
24279;SDS011;12395;42.808;23.408;2022-07-29T03:57:07;8.40;;;5.70;;
24279;SDS011;12395;42.808;23.408;2022-07-29T03:59:36;9.70;;;5.60;;
24279;SDS011;12395;42.808;23.408;2022-07-29T04:02:03;9.70;;;5.95;;
24279;SDS011;12395;42.808;23.408;2022-07-29T04:04:33;10.20;;;5.80;;
24279;SDS011;12395;42.808;23.408;2022-07-29T04:06:59;9.57;;;6.00;;
24279;SDS011;12395;42.808;23.408;2022-07-29T04:09:25;9.50;;;6.13;;
24279;SDS011;12395;42.808;23.408;2022-07-29T04:11:50;8.93;;;5.80;;
24279;SDS011;12395;42.808;23.408;2022-07-29T04:14:16;8.13;;;5.38;;
24279;SDS011;12395;42.808;23.408;2022-07-29T04:16:41;10.43;;;6.10;;
24279;SDS011;12395;42.808;23.408;2022-07-29T04:19:06;8.32;;;6.13;;
24279;SDS011;12395;42.808;23.408;2022-07-29T04:21:36;11.00;;;7.05;;
24279;SDS011;12395;42.808;23.408;2022-07-29T04:24:03;10.77;;;7.07;;
24279;SDS011;12395;42.808;23.408;2022-07-29T04:26:28;8.75;;;6.53;;
24279;SDS011;12395;42.808;23.408;2022-07-29T04:28:54;9.60;;;6.70;;
24279;SDS011;12395;42.808;23.408;2022-07-29T04:31:19;8.90;;;6.60;;
24279;SDS011;12395;42.808;23.408;2022-07-29T04:33:44;8.75;;;5.93;;
24279;SDS011;12395;42.808;23.408;2022-07-29T04:36:10;8.80;;;6.05;;
24279;SDS011;12395;42.808;23.408;2022-07-29T04:38:36;9.27;;;5.93;;
24279;SDS011;12395;42.808;23.408;2022-07-29T04:41:02;8.70;;;5.82;;
24279;SDS011;12395;42.808;23.408;2022-07-29T04:43:27;7.70;;;5.28;;
24279;SDS011;12395;42.808;23.408;2022-07-29T04:45:52;6.32;;;4.75;;
24279;SDS011;12395;42.808;23.408;2022-07-29T04:48:18;6.85;;;4.60;;
24279;SDS011;12395;42.808;23.408;2022-07-29T04:50:43;6.85;;;4.43;;
24279;SDS011;12395;42.808;23.408;2022-07-29T04:53:09;7.05;;;3.97;;
24279;SDS011;12395;42.808;23.408;2022-07-29T04:55:34;7.45;;;4.18;;
24279;SDS011;12395;42.808;23.408;2022-07-29T04:58:01;7.67;;;4.30;;
24279;SDS011;12395;42.808;23.408;2022-07-29T05:00:27;6.13;;;4.22;;
24279;SDS011;12395;42.808;23.408;2022-07-29T05:02:52;7.47;;;3.80;;
24279;SDS011;12395;42.808;23.408;2022-07-29T05:05:18;4.75;;;3.58;;
24279;SDS011;12395;42.808;23.408;2022-07-29T05:07:45;6.18;;;3.55;;
24279;SDS011;12395;42.808;23.408;2022-07-29T05:10:10;6.35;;;4.07;;
24279;SDS011;12395;42.808;23.408;2022-07-29T05:12:36;5.70;;;3.33;;
24279;SDS011;12395;42.808;23.408;2022-07-29T05:15:02;8.15;;;3.58;;
24279;SDS011;12395;42.808;23.408;2022-07-29T05:17:29;5.95;;;3.60;;
24279;SDS011;12395;42.808;23.408;2022-07-29T05:19:55;4.53;;;3.55;;
24279;SDS011;12395;42.808;23.408;2022-07-29T05:22:21;6.80;;;3.80;;
24279;SDS011;12395;42.808;23.408;2022-07-29T05:24:48;6.88;;;3.70;;
24279;SDS011;12395;42.808;23.408;2022-07-29T05:27:13;5.15;;;3.85;;
24279;SDS011;12395;42.808;23.408;2022-07-29T05:29:39;5.72;;;3.80;;
24279;SDS011;12395;42.808;23.408;2022-07-29T05:32:04;7.78;;;5.30;;
24279;SDS011;12395;42.808;23.408;2022-07-29T05:34:30;9.57;;;6.80;;
24279;SDS011;12395;42.808;23.408;2022-07-29T05:36:56;9.20;;;6.45;;
24279;SDS011;12395;42.808;23.408;2022-07-29T05:39:22;9.98;;;6.30;;
24279;SDS011;12395;42.808;23.408;2022-07-29T05:41:48;7.95;;;5.72;;
24279;SDS011;12395;42.808;23.408;2022-07-29T05:44:13;10.23;;;7.07;;
24279;SDS011;12395;42.808;23.408;2022-07-29T05:46:39;8.48;;;5.40;;
24279;SDS011;12395;42.808;23.408;2022-07-29T05:49:04;7.28;;;5.10;;
24279;SDS011;12395;42.808;23.408;2022-07-29T05:51:31;6.43;;;4.63;;
24279;SDS011;12395;42.808;23.408;2022-07-29T05:53:57;8.07;;;5.40;;
24279;SDS011;12395;42.808;23.408;2022-07-29T05:56:23;7.45;;;4.75;;
24279;SDS011;12395;42.808;23.408;2022-07-29T05:58:48;8.13;;;4.32;;
24279;SDS011;12395;42.808;23.408;2022-07-29T06:01:14;5.32;;;4.25;;
24279;SDS011;12395;42.808;23.408;2022-07-29T06:03:39;5.35;;;3.42;;
24279;SDS011;12395;42.808;23.408;2022-07-29T06:06:06;5.70;;;3.30;;
24279;SDS011;12395;42.808;23.408;2022-07-29T06:08:32;4.47;;;3.00;;
24279;SDS011;12395;42.808;23.408;2022-07-29T06:10:58;5.93;;;3.33;;
24279;SDS011;12395;42.808;23.408;2022-07-29T06:13:24;6.85;;;3.55;;
24279;SDS011;12395;42.808;23.408;2022-07-29T06:15:50;5.78;;;2.92;;
24279;SDS011;12395;42.808;23.408;2022-07-29T06:18:16;4.32;;;3.13;;
24279;SDS011;12395;42.808;23.408;2022-07-29T06:20:41;4.70;;;3.20;;
24279;SDS011;12395;42.808;23.408;2022-07-29T06:23:07;5.32;;;3.20;;
24279;SDS011;12395;42.808;23.408;2022-07-29T06:25:32;4.38;;;3.40;;
24279;SDS011;12395;42.808;23.408;2022-07-29T06:28:00;5.47;;;3.05;;
24279;SDS011;12395;42.808;23.408;2022-07-29T06:30:25;4.68;;;3.20;;
24279;SDS011;12395;42.808;23.408;2022-07-29T06:32:51;4.53;;;3.20;;
24279;SDS011;12395;42.808;23.408;2022-07-29T06:35:17;3.80;;;2.85;;
24279;SDS011;12395;42.808;23.408;2022-07-29T06:37:42;4.63;;;3.20;;
24279;SDS011;12395;42.808;23.408;2022-07-29T06:40:08;5.03;;;3.22;;
24279;SDS011;12395;42.808;23.408;2022-07-29T06:42:52;4.45;;;3.15;;
24279;SDS011;12395;42.808;23.408;2022-07-29T06:45:17;4.28;;;3.10;;
24279;SDS011;12395;42.808;23.408;2022-07-29T06:47:43;4.38;;;3.45;;
24279;SDS011;12395;42.808;23.408;2022-07-29T06:50:08;4.15;;;2.90;;
24279;SDS011;12395;42.808;23.408;2022-07-29T06:52:37;3.70;;;2.90;;
24279;SDS011;12395;42.808;23.408;2022-07-29T06:55:03;4.32;;;3.40;;
24279;SDS011;12395;42.808;23.408;2022-07-29T06:57:28;6.07;;;3.28;;
24279;SDS011;12395;42.808;23.408;2022-07-29T06:59:55;4.85;;;3.47;;
24279;SDS011;12395;42.808;23.408;2022-07-29T07:04:46;6.07;;;3.30;;
24279;SDS011;12395;42.808;23.408;2022-07-29T07:07:12;5.80;;;3.20;;
24279;SDS011;12395;42.808;23.408;2022-07-29T07:09:37;5.00;;;3.45;;
24279;SDS011;12395;42.808;23.408;2022-07-29T07:12:03;4.82;;;3.30;;
24279;SDS011;12395;42.808;23.408;2022-07-29T07:14:28;5.20;;;3.65;;
24279;SDS011;12395;42.808;23.408;2022-07-29T07:16:54;4.75;;;3.40;;
24279;SDS011;12395;42.808;23.408;2022-07-29T07:19:19;3.90;;;2.78;;
24279;SDS011;12395;42.808;23.408;2022-07-29T07:21:44;7.32;;;3.47;;
24279;SDS011;12395;42.808;23.408;2022-07-29T07:24:10;4.72;;;3.50;;
24279;SDS011;12395;42.808;23.408;2022-07-29T07:26:35;5.60;;;3.22;;
24279;SDS011;12395;42.808;23.408;2022-07-29T07:29:01;4.93;;;3.40;;
24279;SDS011;12395;42.808;23.408;2022-07-29T07:31:26;6.22;;;3.67;;
24279;SDS011;12395;42.808;23.408;2022-07-29T07:33:52;5.25;;;3.65;;
24279;SDS011;12395;42.808;23.408;2022-07-29T07:36:18;6.03;;;3.70;;
24279;SDS011;12395;42.808;23.408;2022-07-29T07:38:44;8.65;;;4.50;;
24279;SDS011;12395;42.808;23.408;2022-07-29T07:41:09;6.45;;;3.78;;
24279;SDS011;12395;42.808;23.408;2022-07-29T07:43:35;5.13;;;3.60;;
24279;SDS011;12395;42.808;23.408;2022-07-29T07:46:00;5.78;;;3.65;;
24279;SDS011;12395;42.808;23.408;2022-07-29T07:48:26;5.40;;;3.50;;
24279;SDS011;12395;42.808;23.408;2022-07-29T07:50:51;4.95;;;3.28;;
24279;SDS011;12395;42.808;23.408;2022-07-29T07:53:17;5.53;;;3.45;;
24279;SDS011;12395;42.808;23.408;2022-07-29T07:55:42;4.47;;;3.10;;
24279;SDS011;12395;42.808;23.408;2022-07-29T07:58:08;4.63;;;3.33;;
24279;SDS011;12395;42.808;23.408;2022-07-29T08:00:34;6.80;;;3.50;;
24279;SDS011;12395;42.808;23.408;2022-07-29T08:03:00;7.10;;;3.60;;
24279;SDS011;12395;42.808;23.408;2022-07-29T08:05:26;4.18;;;3.40;;
24279;SDS011;12395;42.808;23.408;2022-07-29T08:07:51;5.70;;;3.55;;
24279;SDS011;12395;42.808;23.408;2022-07-29T08:10:17;7.78;;;3.38;;
24279;SDS011;12395;42.808;23.408;2022-07-29T08:13:07;6.30;;;3.72;;
24279;SDS011;12395;42.808;23.408;2022-07-29T08:15:33;5.20;;;3.40;;
24279;SDS011;12395;42.808;23.408;2022-07-29T08:17:59;6.88;;;3.25;;
24279;SDS011;12395;42.808;23.408;2022-07-29T08:20:24;4.28;;;3.30;;
24279;SDS011;12395;42.808;23.408;2022-07-29T08:22:50;5.53;;;3.58;;
24279;SDS011;12395;42.808;23.408;2022-07-29T08:25:15;5.25;;;3.22;;
24279;SDS011;12395;42.808;23.408;2022-07-29T08:27:44;6.43;;;3.95;;
24279;SDS011;12395;42.808;23.408;2022-07-29T08:30:11;5.15;;;3.25;;
24279;SDS011;12395;42.808;23.408;2022-07-29T08:32:36;5.53;;;3.63;;
24279;SDS011;12395;42.808;23.408;2022-07-29T08:35:05;6.72;;;3.88;;
24279;SDS011;12395;42.808;23.408;2022-07-29T08:37:31;4.82;;;3.42;;
24279;SDS011;12395;42.808;23.408;2022-07-29T08:39:56;5.70;;;3.30;;
24279;SDS011;12395;42.808;23.408;2022-07-29T08:42:21;5.03;;;3.35;;
24279;SDS011;12395;42.808;23.408;2022-07-29T08:44:47;5.47;;;3.40;;
24279;SDS011;12395;42.808;23.408;2022-07-29T08:47:14;4.97;;;3.40;;
24279;SDS011;12395;42.808;23.408;2022-07-29T08:49:40;4.53;;;3.40;;
24279;SDS011;12395;42.808;23.408;2022-07-29T08:52:05;8.27;;;3.10;;
24279;SDS011;12395;42.808;23.408;2022-07-29T08:54:32;7.45;;;3.22;;
24279;SDS011;12395;42.808;23.408;2022-07-29T08:56:57;5.63;;;3.17;;
24279;SDS011;12395;42.808;23.408;2022-07-29T09:01:52;3.60;;;2.88;;
24279;SDS011;12395;42.808;23.408;2022-07-29T09:04:19;4.82;;;2.83;;
24279;SDS011;12395;42.808;23.408;2022-07-29T09:06:47;3.83;;;2.72;;
24279;SDS011;12395;42.808;23.408;2022-07-29T09:09:15;3.97;;;2.60;;
24279;SDS011;12395;42.808;23.408;2022-07-29T09:11:40;4.43;;;2.72;;
24279;SDS011;12395;42.808;23.408;2022-07-29T09:14:07;7.68;;;3.38;;
24279;SDS011;12395;42.808;23.408;2022-07-29T09:16:46;4.38;;;2.97;;
24279;SDS011;12395;42.808;23.408;2022-07-29T09:19:22;4.65;;;3.03;;
24279;SDS011;12395;42.808;23.408;2022-07-29T09:21:49;3.33;;;3.00;;
24279;SDS011;12395;42.808;23.408;2022-07-29T09:27:00;6.20;;;3.45;;
24279;SDS011;12395;42.808;23.408;2022-07-29T09:29:26;4.22;;;3.20;;
24279;SDS011;12395;42.808;23.408;2022-07-29T09:31:53;7.50;;;3.38;;
24279;SDS011;12395;42.808;23.408;2022-07-29T09:34:24;5.45;;;3.35;;
24279;SDS011;12395;42.808;23.408;2022-07-29T09:36:51;4.00;;;3.35;;
24279;SDS011;12395;42.808;23.408;2022-07-29T09:39:31;4.85;;;3.30;;
24279;SDS011;12395;42.808;23.408;2022-07-29T09:41:57;4.75;;;3.17;;
24279;SDS011;12395;42.808;23.408;2022-07-29T09:44:25;7.15;;;3.10;;
24279;SDS011;12395;42.808;23.408;2022-07-29T09:49:33;4.10;;;3.30;;
24279;SDS011;12395;42.808;23.408;2022-07-29T09:54:31;4.75;;;3.08;;
24279;SDS011;12395;42.808;23.408;2022-07-29T09:57:01;3.85;;;3.10;;
24279;SDS011;12395;42.808;23.408;2022-07-29T09:59:29;4.20;;;3.15;;
24279;SDS011;12395;42.808;23.408;2022-07-29T10:01:55;4.47;;;3.10;;
24279;SDS011;12395;42.808;23.408;2022-07-29T10:04:20;4.82;;;3.20;;
24279;SDS011;12395;42.808;23.408;2022-07-29T10:06:56;5.65;;;3.53;;
24279;SDS011;12395;42.808;23.408;2022-07-29T10:09:23;4.45;;;3.15;;
24279;SDS011;12395;42.808;23.408;2022-07-29T10:12:02;3.70;;;3.00;;
24279;SDS011;12395;42.808;23.408;2022-07-29T10:14:31;4.30;;;3.05;;
24279;SDS011;12395;42.808;23.408;2022-07-29T10:17:00;4.85;;;3.50;;
24279;SDS011;12395;42.808;23.408;2022-07-29T10:19:30;4.30;;;3.00;;
24279;SDS011;12395;42.808;23.408;2022-07-29T10:21:57;5.65;;;3.10;;
24279;SDS011;12395;42.808;23.408;2022-07-29T10:24:27;4.72;;;2.92;;
24279;SDS011;12395;42.808;23.408;2022-07-29T10:26:56;4.68;;;3.20;;
24279;SDS011;12395;42.808;23.408;2022-07-29T10:29:23;4.63;;;3.22;;
24279;SDS011;12395;42.808;23.408;2022-07-29T10:31:57;4.43;;;3.30;;
24279;SDS011;12395;42.808;23.408;2022-07-29T10:37:57;3.45;;;2.95;;
24279;SDS011;12395;42.808;23.408;2022-07-29T10:43:21;5.13;;;3.67;;
24279;SDS011;12395;42.808;23.408;2022-07-29T10:45:55;5.75;;;3.08;;
24279;SDS011;12395;42.808;23.408;2022-07-29T10:48:22;5.22;;;3.17;;
24279;SDS011;12395;42.808;23.408;2022-07-29T10:50:52;3.55;;;3.00;;
24279;SDS011;12395;42.808;23.408;2022-07-29T10:53:23;3.92;;;3.20;;
24279;SDS011;12395;42.808;23.408;2022-07-29T10:55:53;4.22;;;3.30;;
24279;SDS011;12395;42.808;23.408;2022-07-29T10:58:22;6.63;;;3.45;;
24279;SDS011;12395;42.808;23.408;2022-07-29T11:00:51;6.10;;;3.00;;
24279;SDS011;12395;42.808;23.408;2022-07-29T11:06:07;3.78;;;3.28;;
24279;SDS011;12395;42.808;23.408;2022-07-29T11:08:32;3.83;;;3.10;;
24279;SDS011;12395;42.808;23.408;2022-07-29T11:16:16;4.97;;;3.72;;
24279;SDS011;12395;42.808;23.408;2022-07-29T11:21:36;6.25;;;3.95;;
24279;SDS011;12395;42.808;23.408;2022-07-29T11:26:39;5.15;;;3.80;;
24279;SDS011;12395;42.808;23.408;2022-07-29T11:31:49;5.18;;;4.00;;
24279;SDS011;12395;42.808;23.408;2022-07-29T11:39:45;6.78;;;4.40;;
24279;SDS011;12395;42.808;23.408;2022-07-29T11:47:19;6.00;;;4.00;;
24279;SDS011;12395;42.808;23.408;2022-07-29T11:49:46;5.50;;;4.20;;
24279;SDS011;12395;42.808;23.408;2022-07-29T11:52:12;5.82;;;4.25;;
24279;SDS011;12395;42.808;23.408;2022-07-29T11:54:38;6.00;;;4.10;;
24279;SDS011;12395;42.808;23.408;2022-07-29T11:57:07;7.60;;;4.90;;
24279;SDS011;12395;42.808;23.408;2022-07-29T11:59:38;6.78;;;4.45;;
24279;SDS011;12395;42.808;23.408;2022-07-29T12:02:04;6.70;;;4.30;;
24279;SDS011;12395;42.808;23.408;2022-07-29T12:04:30;5.50;;;4.50;;
24279;SDS011;12395;42.808;23.408;2022-07-29T12:06:55;4.87;;;4.30;;
24279;SDS011;12395;42.808;23.408;2022-07-29T12:09:22;6.43;;;4.50;;
24279;SDS011;12395;42.808;23.408;2022-07-29T12:11:57;7.38;;;4.50;;
24279;SDS011;12395;42.808;23.408;2022-07-29T12:14:24;6.70;;;4.20;;
24279;SDS011;12395;42.808;23.408;2022-07-29T12:16:54;6.95;;;4.50;;
24279;SDS011;12395;42.808;23.408;2022-07-29T12:19:20;6.45;;;4.40;;
24279;SDS011;12395;42.808;23.408;2022-07-29T12:21:46;5.07;;;4.10;;
24279;SDS011;12395;42.808;23.408;2022-07-29T12:24:12;9.27;;;4.72;;
24279;SDS011;12395;42.808;23.408;2022-07-29T12:26:57;6.10;;;4.27;;
24279;SDS011;12395;42.808;23.408;2022-07-29T12:29:24;4.75;;;3.80;;
24279;SDS011;12395;42.808;23.408;2022-07-29T12:31:53;6.30;;;4.15;;
24279;SDS011;12395;42.808;23.408;2022-07-29T12:34:20;7.13;;;4.10;;
24279;SDS011;12395;42.808;23.408;2022-07-29T12:36:49;6.40;;;4.13;;
24279;SDS011;12395;42.808;23.408;2022-07-29T12:39:15;5.18;;;4.15;;
24279;SDS011;12395;42.808;23.408;2022-07-29T12:41:42;4.90;;;4.20;;
24279;SDS011;12395;42.808;23.408;2022-07-29T12:44:08;4.80;;;4.03;;
24279;SDS011;12395;42.808;23.408;2022-07-29T12:46:34;4.53;;;4.03;;
24279;SDS011;12395;42.808;23.408;2022-07-29T12:48:59;6.13;;;3.97;;
24279;SDS011;12395;42.808;23.408;2022-07-29T12:51:35;5.90;;;4.00;;
24279;SDS011;12395;42.808;23.408;2022-07-29T12:56:28;5.73;;;4.17;;
24279;SDS011;12395;42.808;23.408;2022-07-29T12:58:53;7.83;;;4.77;;
24279;SDS011;12395;42.808;23.408;2022-07-29T13:01:19;6.50;;;4.20;;
24279;SDS011;12395;42.808;23.408;2022-07-29T13:03:58;5.63;;;4.10;;
24279;SDS011;12395;42.808;23.408;2022-07-29T13:06:35;6.82;;;4.10;;
24279;SDS011;12395;42.808;23.408;2022-07-29T13:09:07;5.13;;;4.40;;
24279;SDS011;12395;42.808;23.408;2022-07-29T13:14:10;6.15;;;4.10;;
24279;SDS011;12395;42.808;23.408;2022-07-29T13:16:59;6.43;;;3.80;;
24279;SDS011;12395;42.808;23.408;2022-07-29T13:19:46;5.55;;;4.00;;
24279;SDS011;12395;42.808;23.408;2022-07-29T13:22:13;6.28;;;4.10;;
24279;SDS011;12395;42.808;23.408;2022-07-29T13:27:13;7.05;;;4.07;;
24279;SDS011;12395;42.808;23.408;2022-07-29T13:29:39;7.05;;;3.83;;
24279;SDS011;12395;42.808;23.408;2022-07-29T13:32:05;5.87;;;4.30;;
24279;SDS011;12395;42.808;23.408;2022-07-29T13:34:30;5.57;;;4.00;;
24279;SDS011;12395;42.808;23.408;2022-07-29T13:36:56;8.37;;;4.40;;
24279;SDS011;12395;42.808;23.408;2022-07-29T13:39:21;9.77;;;4.40;;
24279;SDS011;12395;42.808;23.408;2022-07-29T13:41:47;4.80;;;4.17;;
24279;SDS011;12395;42.808;23.408;2022-07-29T13:44:12;8.03;;;4.00;;
24279;SDS011;12395;42.808;23.408;2022-07-29T13:46:38;8.00;;;4.30;;
24279;SDS011;12395;42.808;23.408;2022-07-29T13:49:03;4.70;;;4.20;;
24279;SDS011;12395;42.808;23.408;2022-07-29T13:51:28;4.77;;;4.20;;
24279;SDS011;12395;42.808;23.408;2022-07-29T13:53:54;7.67;;;4.10;;
24279;SDS011;12395;42.808;23.408;2022-07-29T13:56:19;4.70;;;4.17;;
24279;SDS011;12395;42.808;23.408;2022-07-29T13:58:45;6.57;;;4.20;;
24279;SDS011;12395;42.808;23.408;2022-07-29T14:01:10;5.67;;;4.10;;
24279;SDS011;12395;42.808;23.408;2022-07-29T14:03:35;7.67;;;3.90;;
24279;SDS011;12395;42.808;23.408;2022-07-29T14:06:05;6.43;;;4.18;;
24279;SDS011;12395;42.808;23.408;2022-07-29T14:08:31;6.30;;;3.87;;
24279;SDS011;12395;42.808;23.408;2022-07-29T14:10:56;5.67;;;4.13;;
24279;SDS011;12395;42.808;23.408;2022-07-29T14:13:21;5.50;;;4.10;;
24279;SDS011;12395;42.808;23.408;2022-07-29T14:15:47;5.73;;;4.23;;
24279;SDS011;12395;42.808;23.408;2022-07-29T14:18:12;5.60;;;4.03;;
24279;SDS011;12395;42.808;23.408;2022-07-29T14:20:38;5.10;;;4.07;;
24279;SDS011;12395;42.808;23.408;2022-07-29T14:23:03;5.53;;;4.23;;
24279;SDS011;12395;42.808;23.408;2022-07-29T14:25:29;5.30;;;4.03;;
24279;SDS011;12395;42.808;23.408;2022-07-29T14:27:54;5.93;;;4.30;;
24279;SDS011;12395;42.808;23.408;2022-07-29T14:30:20;6.53;;;4.20;;
24279;SDS011;12395;42.808;23.408;2022-07-29T14:32:45;5.93;;;4.30;;
24279;SDS011;12395;42.808;23.408;2022-07-29T14:35:11;5.37;;;4.40;;
24279;SDS011;12395;42.808;23.408;2022-07-29T14:37:36;5.57;;;4.43;;
24279;SDS011;12395;42.808;23.408;2022-07-29T14:40:03;6.93;;;4.27;;
24279;SDS011;12395;42.808;23.408;2022-07-29T14:42:29;6.85;;;4.50;;
24279;SDS011;12395;42.808;23.408;2022-07-29T14:44:56;6.80;;;4.57;;
24279;SDS011;12395;42.808;23.408;2022-07-29T14:47:22;7.07;;;4.27;;
24279;SDS011;12395;42.808;23.408;2022-07-29T14:49:48;6.17;;;4.10;;
24279;SDS011;12395;42.808;23.408;2022-07-29T14:52:14;6.60;;;4.23;;
24279;SDS011;12395;42.808;23.408;2022-07-29T14:54:39;6.80;;;4.40;;
24279;SDS011;12395;42.808;23.408;2022-07-29T14:57:05;5.73;;;4.13;;
24279;SDS011;12395;42.808;23.408;2022-07-29T14:59:30;5.57;;;4.40;;
24279;SDS011;12395;42.808;23.408;2022-07-29T15:01:56;5.70;;;4.47;;
24279;SDS011;12395;42.808;23.408;2022-07-29T15:04:21;5.70;;;4.20;;
24279;SDS011;12395;42.808;23.408;2022-07-29T15:06:47;6.60;;;4.07;;
24279;SDS011;12395;42.808;23.408;2022-07-29T15:09:12;6.23;;;3.90;;
24279;SDS011;12395;42.808;23.408;2022-07-29T15:11:38;6.03;;;4.13;;
24279;SDS011;12395;42.808;23.408;2022-07-29T15:14:03;6.67;;;4.20;;
24279;SDS011;12395;42.808;23.408;2022-07-29T15:16:29;5.37;;;3.70;;
24279;SDS011;12395;42.808;23.408;2022-07-29T15:18:54;4.93;;;4.10;;
24279;SDS011;12395;42.808;23.408;2022-07-29T15:21:22;4.00;;;3.60;;
24279;SDS011;12395;42.808;23.408;2022-07-29T15:23:48;4.47;;;3.63;;
24279;SDS011;12395;42.808;23.408;2022-07-29T15:26:13;7.63;;;3.93;;
24279;SDS011;12395;42.808;23.408;2022-07-29T15:28:39;5.27;;;3.80;;
24279;SDS011;12395;42.808;23.408;2022-07-29T15:31:05;4.63;;;3.67;;
24279;SDS011;12395;42.808;23.408;2022-07-29T15:33:30;5.03;;;3.63;;
24279;SDS011;12395;42.808;23.408;2022-07-29T15:35:56;5.57;;;3.90;;
24279;SDS011;12395;42.808;23.408;2022-07-29T15:38:22;5.53;;;3.80;;
24279;SDS011;12395;42.808;23.408;2022-07-29T15:40:47;5.03;;;3.60;;